Airfield :
LOGIN :

Register | Disclaimer

   EN    FR    IT 

 










Legend :    VFR   Marginal VFR   IFR   Intensive IFR   Very Intensive IFR
Visi :
Ceiling :
>= 8 km
>= 3000ft
5 to 8 km
1000 to 3000 ft
1500m to 5 km
500 to 1000 ft
800 to 1500m
200 to 500 ft
< 800m
< 200 ft
Symbols :   Thunderstorms  Fog  Heavy snow  Heavy precipitations  Wind > 20 kt
SIGMETs :     Misc.  Thunderstorms  Icing  Turbulence  Mountain Waves  Volcanic Ashes







- Airport Elevation : 18 ft


LIPC - Cervia AFB Ravenna

CURRENT METAR :
  • 150955Z 33003KT 4000 BR FEW020 SCT025 19/16 Q1019

EXPIRED METARs :
  • 150855Z 32004KT 4500 BR FEW018 BKN027 16/14 Q1018 RMK BKN VIS MIN 4500 WIND THR11 30004KT WIND THR29 30004KT GRN
  • 150755Z 29003KT 5000 BR SCT018 SCT025 14/12 Q1018

TAF TAF LIPC
Valid from the 15 at 09:00 until the 15 at 18:00 UTC


150800Z 1509/1518 27003KT 4000 BR SCT015 SCT025
BECMG 1511/1513 11012KT 8000
PROB40
TEMPO 1512/1518 3000 SHRA
No reported NOTAMs for that airfield.



MET'MAP, your aeronautical weather chart ! - Copyright ORBIFLY December 2007 - Disclaimer

ORBIFLY MET'MAP TEAM :

Programming & Development : Alexandra Zaïnal
Concept & Development : Baudouin d'Aumeries
Co-Development & Prog : Marc-Olivier Méhu
Technical & hardware support : Manuel Goepfert

Contact : metmap@orbifly.com




SOURCES & CREDITS :

   NOAA